sensor_id;sensor_type;location;lat;lon;timestamp;P1;durP1;ratioP1;P2;durP2;ratioP2
26062;SDS011;13837;48.562;12.108;2023-02-18T01:09:59;9.43;;;8.93;;
26062;SDS011;13837;48.562;12.108;2023-02-18T01:12:25;9.18;;;8.60;;
26062;SDS011;13837;48.562;12.108;2023-02-18T01:14:53;9.30;;;8.80;;
26062;SDS011;13837;48.562;12.108;2023-02-18T01:17:19;8.95;;;8.55;;
26062;SDS011;13837;48.562;12.108;2023-02-18T01:19:45;9.50;;;9.00;;
26062;SDS011;13837;48.562;12.108;2023-02-18T01:22:11;10.18;;;9.35;;
26062;SDS011;13837;48.562;12.108;2023-02-18T01:24:37;9.30;;;8.80;;
26062;SDS011;13837;48.562;12.108;2023-02-18T01:27:03;9.60;;;9.00;;
26062;SDS011;13837;48.562;12.108;2023-02-18T01:29:29;9.52;;;9.02;;
26062;SDS011;13837;48.562;12.108;2023-02-18T01:31:55;9.40;;;8.68;;
26062;SDS011;13837;48.562;12.108;2023-02-18T01:34:21;8.65;;;8.25;;
26062;SDS011;13837;48.562;12.108;2023-02-18T01:36:48;9.35;;;8.65;;
26062;SDS011;13837;48.562;12.108;2023-02-18T01:39:15;8.77;;;8.38;;
26062;SDS011;13837;48.562;12.108;2023-02-18T01:41:42;8.50;;;8.10;;
26062;SDS011;13837;48.562;12.108;2023-02-18T01:44:28;8.85;;;8.45;;
26062;SDS011;13837;48.562;12.108;2023-02-18T01:46:54;9.13;;;8.63;;
26062;SDS011;13837;48.562;12.108;2023-02-18T01:49:31;8.50;;;8.10;;
26062;SDS011;13837;48.562;12.108;2023-02-18T01:51:59;8.13;;;7.70;;
26062;SDS011;13837;48.562;12.108;2023-02-18T01:54:30;8.70;;;8.10;;
26062;SDS011;13837;48.562;12.108;2023-02-18T01:59:33;7.90;;;7.60;;
26062;SDS011;13837;48.562;12.108;2023-02-18T02:02:02;8.27;;;7.88;;
26062;SDS011;13837;48.562;12.108;2023-02-18T02:04:29;8.90;;;8.40;;
26062;SDS011;13837;48.562;12.108;2023-02-18T02:06:55;8.82;;;8.43;;
26062;SDS011;13837;48.562;12.108;2023-02-18T02:09:21;9.20;;;8.63;;
26062;SDS011;13837;48.562;12.108;2023-02-18T02:16:51;8.70;;;8.30;;
26062;SDS011;13837;48.562;12.108;2023-02-18T02:27:23;8.90;;;8.48;;
26062;SDS011;13837;48.562;12.108;2023-02-18T02:32:39;8.20;;;7.70;;
26062;SDS011;13837;48.562;12.108;2023-02-18T02:35:12;8.68;;;8.07;;
26062;SDS011;13837;48.562;12.108;2023-02-18T02:40:25;8.43;;;7.93;;
26062;SDS011;13837;48.562;12.108;2023-02-18T02:43:06;8.48;;;8.07;;
26062;SDS011;13837;48.562;12.108;2023-02-18T02:48:14;8.43;;;8.02;;
26062;SDS011;13837;48.562;12.108;2023-02-18T02:53:13;8.48;;;8.07;;
26062;SDS011;13837;48.562;12.108;2023-02-18T02:55:39;8.75;;;8.30;;
26062;SDS011;13837;48.562;12.108;2023-02-18T02:58:06;8.68;;;8.18;;
26062;SDS011;13837;48.562;12.108;2023-02-18T03:03:15;8.10;;;7.70;;
26062;SDS011;13837;48.562;12.108;2023-02-18T03:06:00;8.93;;;8.35;;
26062;SDS011;13837;48.562;12.108;2023-02-18T03:16:01;8.75;;;8.35;;
26062;SDS011;13837;48.562;12.108;2023-02-18T03:19:15;8.38;;;7.97;;
26062;SDS011;13837;48.562;12.108;2023-02-18T03:24:01;8.73;;;8.23;;
26062;SDS011;13837;48.562;12.108;2023-02-18T03:26:28;9.05;;;8.60;;
26062;SDS011;13837;48.562;12.108;2023-02-18T03:28:57;8.95;;;8.55;;
26062;SDS011;13837;48.562;12.108;2023-02-18T03:31:25;9.43;;;8.93;;
26062;SDS011;13837;48.562;12.108;2023-02-18T03:34:06;9.52;;;9.02;;
26062;SDS011;13837;48.562;12.108;2023-02-18T03:36:35;9.07;;;8.57;;
26062;SDS011;13837;48.562;12.108;2023-02-18T03:39:08;10.00;;;9.50;;
26062;SDS011;13837;48.562;12.108;2023-02-18T03:41:36;9.70;;;9.20;;
26062;SDS011;13837;48.562;12.108;2023-02-18T03:44:03;10.02;;;9.50;;
26062;SDS011;13837;48.562;12.108;2023-02-18T03:46:30;9.50;;;9.00;;
26062;SDS011;13837;48.562;12.108;2023-02-18T03:48:57;9.50;;;8.90;;
26062;SDS011;13837;48.562;12.108;2023-02-18T03:51:23;9.73;;;9.07;;
26062;SDS011;13837;48.562;12.108;2023-02-18T03:53:50;9.10;;;8.60;;
26062;SDS011;13837;48.562;12.108;2023-02-18T03:56:16;9.70;;;9.10;;
26062;SDS011;13837;48.562;12.108;2023-02-18T03:58:42;10.02;;;9.32;;
26062;SDS011;13837;48.562;12.108;2023-02-18T04:01:08;9.90;;;9.20;;
26062;SDS011;13837;48.562;12.108;2023-02-18T04:03:34;9.70;;;8.90;;
26062;SDS011;13837;48.562;12.108;2023-02-18T04:06:01;9.85;;;9.25;;
26062;SDS011;13837;48.562;12.108;2023-02-18T04:08:27;9.43;;;8.93;;
26062;SDS011;13837;48.562;12.108;2023-02-18T04:10:53;10.10;;;9.60;;
26062;SDS011;13837;48.562;12.108;2023-02-18T04:13:19;9.90;;;9.32;;
26062;SDS011;13837;48.562;12.108;2023-02-18T04:15:47;9.80;;;9.20;;
26062;SDS011;13837;48.562;12.108;2023-02-18T04:18:14;9.30;;;8.90;;
26062;SDS011;13837;48.562;12.108;2023-02-18T04:20:40;9.70;;;9.20;;
26062;SDS011;13837;48.562;12.108;2023-02-18T04:23:06;9.70;;;9.13;;
26062;SDS011;13837;48.562;12.108;2023-02-18T04:25:32;9.13;;;8.63;;
26062;SDS011;13837;48.562;12.108;2023-02-18T04:27:58;9.55;;;8.93;;
26062;SDS011;13837;48.562;12.108;2023-02-18T04:30:25;9.48;;;8.98;;
26062;SDS011;13837;48.562;12.108;2023-02-18T04:32:51;9.50;;;8.95;;
26062;SDS011;13837;48.562;12.108;2023-02-18T04:35:17;9.15;;;8.75;;
26062;SDS011;13837;48.562;12.108;2023-02-18T04:37:43;9.40;;;8.80;;
26062;SDS011;13837;48.562;12.108;2023-02-18T04:40:09;9.60;;;9.10;;
26062;SDS011;13837;48.562;12.108;2023-02-18T04:42:36;8.90;;;8.50;;
26062;SDS011;13837;48.562;12.108;2023-02-18T04:45:02;9.23;;;8.63;;
26062;SDS011;13837;48.562;12.108;2023-02-18T04:47:29;9.13;;;8.63;;
26062;SDS011;13837;48.562;12.108;2023-02-18T04:49:55;9.00;;;8.60;;
26062;SDS011;13837;48.562;12.108;2023-02-18T04:52:21;9.20;;;8.77;;
26062;SDS011;13837;48.562;12.108;2023-02-18T04:54:47;9.55;;;8.95;;
26062;SDS011;13837;48.562;12.108;2023-02-18T04:57:13;9.57;;;8.98;;
26062;SDS011;13837;48.562;12.108;2023-02-18T04:59:39;9.20;;;8.80;;
26062;SDS011;13837;48.562;12.108;2023-02-18T05:02:05;8.93;;;8.52;;
26062;SDS011;13837;48.562;12.108;2023-02-18T05:04:32;9.35;;;8.80;;
26062;SDS011;13837;48.562;12.108;2023-02-18T05:06:58;9.15;;;8.55;;
26062;SDS011;13837;48.562;12.108;2023-02-18T05:09:24;8.57;;;8.18;;
26062;SDS011;13837;48.562;12.108;2023-02-18T05:11:50;9.38;;;8.88;;
26062;SDS011;13837;48.562;12.108;2023-02-18T05:14:17;9.18;;;8.68;;
26062;SDS011;13837;48.562;12.108;2023-02-18T05:16:43;9.35;;;8.90;;
26062;SDS011;13837;48.562;12.108;2023-02-18T05:19:11;9.25;;;8.85;;
26062;SDS011;13837;48.562;12.108;2023-02-18T05:21:38;9.35;;;8.85;;
26062;SDS011;13837;48.562;12.108;2023-02-18T05:24:04;8.90;;;8.50;;
26062;SDS011;13837;48.562;12.108;2023-02-18T05:26:30;8.90;;;8.30;;
26062;SDS011;13837;48.562;12.108;2023-02-18T05:28:57;9.60;;;9.00;;
26062;SDS011;13837;48.562;12.108;2023-02-18T05:31:23;8.88;;;8.48;;
26062;SDS011;13837;48.562;12.108;2023-02-18T05:33:49;9.10;;;8.60;;
26062;SDS011;13837;48.562;12.108;2023-02-18T05:36:16;9.32;;;8.65;;
26062;SDS011;13837;48.562;12.108;2023-02-18T05:38:42;8.55;;;8.15;;
26062;SDS011;13837;48.562;12.108;2023-02-18T05:41:08;9.05;;;8.65;;
26062;SDS011;13837;48.562;12.108;2023-02-18T05:43:34;9.35;;;8.95;;
26062;SDS011;13837;48.562;12.108;2023-02-18T05:46:20;9.43;;;8.93;;
26062;SDS011;13837;48.562;12.108;2023-02-18T05:48:46;10.32;;;9.55;;
26062;SDS011;13837;48.562;12.108;2023-02-18T05:51:12;10.35;;;9.65;;
26062;SDS011;13837;48.562;12.108;2023-02-18T05:53:39;9.48;;;8.98;;
26062;SDS011;13837;48.562;12.108;2023-02-18T05:56:05;10.68;;;9.77;;
26062;SDS011;13837;48.562;12.108;2023-02-18T05:58:32;9.88;;;9.15;;
26062;SDS011;13837;48.562;12.108;2023-02-18T06:00:58;9.25;;;8.77;;
26062;SDS011;13837;48.562;12.108;2023-02-18T06:03:24;10.13;;;9.43;;
26062;SDS011;13837;48.562;12.108;2023-02-18T06:05:50;9.68;;;9.15;;
26062;SDS011;13837;48.562;12.108;2023-02-18T06:08:20;9.45;;;8.95;;
26062;SDS011;13837;48.562;12.108;2023-02-18T06:10:46;8.88;;;8.38;;
26062;SDS011;13837;48.562;12.108;2023-02-18T06:13:12;9.32;;;8.85;;
26062;SDS011;13837;48.562;12.108;2023-02-18T06:15:38;9.77;;;9.13;;
26062;SDS011;13837;48.562;12.108;2023-02-18T06:18:05;9.30;;;8.90;;
26062;SDS011;13837;48.562;12.108;2023-02-18T06:20:31;9.18;;;8.68;;
26062;SDS011;13837;48.562;12.108;2023-02-18T06:22:57;9.63;;;9.23;;
26062;SDS011;13837;48.562;12.108;2023-02-18T06:25:23;8.90;;;8.40;;
26062;SDS011;13837;48.562;12.108;2023-02-18T06:27:49;8.98;;;8.57;;
26062;SDS011;13837;48.562;12.108;2023-02-18T06:30:16;9.15;;;8.65;;
26062;SDS011;13837;48.562;12.108;2023-02-18T06:32:42;9.32;;;8.93;;
26062;SDS011;13837;48.562;12.108;2023-02-18T06:35:08;9.35;;;8.68;;
26062;SDS011;13837;48.562;12.108;2023-02-18T06:37:34;9.57;;;9.00;;
26062;SDS011;13837;48.562;12.108;2023-02-18T06:40:00;9.70;;;9.15;;
26062;SDS011;13837;48.562;12.108;2023-02-18T06:42:26;10.13;;;9.50;;
26062;SDS011;13837;48.562;12.108;2023-02-18T06:44:52;8.95;;;8.55;;
26062;SDS011;13837;48.562;12.108;2023-02-18T06:47:18;9.00;;;8.60;;
26062;SDS011;13837;48.562;12.108;2023-02-18T06:49:44;8.90;;;8.48;;
26062;SDS011;13837;48.562;12.108;2023-02-18T06:52:10;8.82;;;8.52;;
26062;SDS011;13837;48.562;12.108;2023-02-18T06:54:36;8.77;;;8.38;;
26062;SDS011;13837;48.562;12.108;2023-02-18T06:57:02;8.77;;;8.48;;
26062;SDS011;13837;48.562;12.108;2023-02-18T06:59:28;9.10;;;8.40;;
26062;SDS011;13837;48.562;12.108;2023-02-18T07:01:54;8.60;;;8.20;;
26062;SDS011;13837;48.562;12.108;2023-02-18T07:04:20;8.60;;;8.10;;
26062;SDS011;13837;48.562;12.108;2023-02-18T07:06:47;7.90;;;7.60;;
26062;SDS011;13837;48.562;12.108;2023-02-18T07:09:13;8.45;;;8.05;;
26062;SDS011;13837;48.562;12.108;2023-02-18T07:11:39;8.82;;;8.35;;
26062;SDS011;13837;48.562;12.108;2023-02-18T07:14:05;8.25;;;7.85;;
26062;SDS011;13837;48.562;12.108;2023-02-18T07:16:31;8.57;;;8.13;;
26062;SDS011;13837;48.562;12.108;2023-02-18T07:18:57;8.60;;;8.20;;
26062;SDS011;13837;48.562;12.108;2023-02-18T07:21:23;11.48;;;10.57;;
26062;SDS011;13837;48.562;12.108;2023-02-18T07:23:53;9.68;;;9.00;;
26062;SDS011;13837;48.562;12.108;2023-02-18T07:26:21;8.82;;;8.40;;
26062;SDS011;13837;48.562;12.108;2023-02-18T07:28:47;9.40;;;8.80;;
26062;SDS011;13837;48.562;12.108;2023-02-18T07:31:19;8.68;;;8.18;;
26062;SDS011;13837;48.562;12.108;2023-02-18T07:33:46;8.60;;;8.10;;
26062;SDS011;13837;48.562;12.108;2023-02-18T07:36:12;8.45;;;8.05;;
26062;SDS011;13837;48.562;12.108;2023-02-18T07:38:45;8.82;;;8.32;;
26062;SDS011;13837;48.562;12.108;2023-02-18T07:41:17;8.70;;;8.20;;
26062;SDS011;13837;48.562;12.108;2023-02-18T07:43:43;8.82;;;8.32;;
26062;SDS011;13837;48.562;12.108;2023-02-18T07:46:09;8.70;;;8.30;;
26062;SDS011;13837;48.562;12.108;2023-02-18T07:48:35;9.13;;;8.52;;
26062;SDS011;13837;48.562;12.108;2023-02-18T07:51:05;8.40;;;7.88;;
26062;SDS011;13837;48.562;12.108;2023-02-18T07:53:32;8.25;;;7.95;;
26062;SDS011;13837;48.562;12.108;2023-02-18T07:55:59;8.88;;;8.38;;
26062;SDS011;13837;48.562;12.108;2023-02-18T07:58:26;8.98;;;8.48;;
26062;SDS011;13837;48.562;12.108;2023-02-18T08:25:14;7.93;;;7.43;;
26062;SDS011;13837;48.562;12.108;2023-02-18T08:27:52;7.97;;;7.47;;
26062;SDS011;13837;48.562;12.108;2023-02-18T08:30:34;7.78;;;7.47;;
26062;SDS011;13837;48.562;12.108;2023-02-18T08:33:13;7.35;;;7.05;;
26062;SDS011;13837;48.562;12.108;2023-02-18T08:35:44;8.00;;;7.50;;
26062;SDS011;13837;48.562;12.108;2023-02-18T08:38:16;7.32;;;7.00;;
26062;SDS011;13837;48.562;12.108;2023-02-18T08:58:05;7.72;;;7.20;;
26062;SDS011;13837;48.562;12.108;2023-02-18T09:00:35;8.00;;;7.57;;
26062;SDS011;13837;48.562;12.108;2023-02-18T09:03:01;8.10;;;7.57;;
26062;SDS011;13837;48.562;12.108;2023-02-18T09:05:46;7.10;;;6.70;;
26062;SDS011;13837;48.562;12.108;2023-02-18T09:08:15;7.47;;;7.07;;
26062;SDS011;13837;48.562;12.108;2023-02-18T09:10:41;6.88;;;6.60;;
26062;SDS011;13837;48.562;12.108;2023-02-18T09:13:17;7.25;;;6.95;;
26062;SDS011;13837;48.562;12.108;2023-02-18T09:15:44;7.00;;;6.70;;
26062;SDS011;13837;48.562;12.108;2023-02-18T09:18:15;7.10;;;6.57;;
26062;SDS011;13837;48.562;12.108;2023-02-18T09:23:28;7.25;;;6.75;;
26062;SDS011;13837;48.562;12.108;2023-02-18T09:26:12;7.10;;;6.70;;
26062;SDS011;13837;48.562;12.108;2023-02-18T09:28:43;6.53;;;6.22;;
26062;SDS011;13837;48.562;12.108;2023-02-18T09:34:41;6.70;;;6.40;;
26062;SDS011;13837;48.562;12.108;2023-02-18T09:37:08;7.03;;;6.70;;
26062;SDS011;13837;48.562;12.108;2023-02-18T09:59:03;6.65;;;6.35;;
26062;SDS011;13837;48.562;12.108;2023-02-18T10:01:36;7.20;;;6.80;;
26062;SDS011;13837;48.562;12.108;2023-02-18T10:04:12;6.80;;;6.50;;
26062;SDS011;13837;48.562;12.108;2023-02-18T10:06:39;6.80;;;6.40;;
26062;SDS011;13837;48.562;12.108;2023-02-18T10:09:10;7.03;;;6.68;;
26062;SDS011;13837;48.562;12.108;2023-02-18T10:17:25;6.72;;;6.38;;
26062;SDS011;13837;48.562;12.108;2023-02-18T10:44:07;6.93;;;6.60;;
26062;SDS011;13837;48.562;12.108;2023-02-18T10:51:34;6.80;;;6.50;;
26062;SDS011;13837;48.562;12.108;2023-02-18T10:54:00;7.85;;;7.30;;
26062;SDS011;13837;48.562;12.108;2023-02-18T10:59:00;6.68;;;6.28;;
26062;SDS011;13837;48.562;12.108;2023-02-18T11:01:26;6.20;;;5.90;;
26062;SDS011;13837;48.562;12.108;2023-02-18T11:04:04;6.45;;;6.20;;
26062;SDS011;13837;48.562;12.108;2023-02-18T11:06:33;7.35;;;6.78;;
26062;SDS011;13837;48.562;12.108;2023-02-18T11:09:03;7.25;;;6.85;;
26062;SDS011;13837;48.562;12.108;2023-02-18T11:11:30;6.50;;;6.20;;
26062;SDS011;13837;48.562;12.108;2023-02-18T11:13:58;6.25;;;5.90;;
26062;SDS011;13837;48.562;12.108;2023-02-18T11:16:44;6.55;;;6.22;;
26062;SDS011;13837;48.562;12.108;2023-02-18T11:19:29;6.20;;;5.90;;
26062;SDS011;13837;48.562;12.108;2023-02-18T11:22:05;6.30;;;6.00;;
26062;SDS011;13837;48.562;12.108;2023-02-18T11:24:33;6.10;;;5.80;;
26062;SDS011;13837;48.562;12.108;2023-02-18T11:27:07;6.55;;;6.20;;
26062;SDS011;13837;48.562;12.108;2023-02-18T11:29:33;6.10;;;5.80;;
26062;SDS011;13837;48.562;12.108;2023-02-18T11:31:59;5.28;;;5.07;;
26062;SDS011;13837;48.562;12.108;2023-02-18T11:34:26;6.15;;;5.95;;
26062;SDS011;13837;48.562;12.108;2023-02-18T11:36:53;6.00;;;5.70;;
26062;SDS011;13837;48.562;12.108;2023-02-18T11:46:10;6.40;;;6.10;;
26062;SDS011;13837;48.562;12.108;2023-02-18T11:48:37;6.20;;;5.80;;
26062;SDS011;13837;48.562;12.108;2023-02-18T11:51:03;5.50;;;5.22;;
26062;SDS011;13837;48.562;12.108;2023-02-18T11:53:36;6.28;;;5.90;;
26062;SDS011;13837;48.562;12.108;2023-02-18T11:56:04;6.03;;;5.70;;
26062;SDS011;13837;48.562;12.108;2023-02-18T11:58:36;5.65;;;5.45;;
26062;SDS011;13837;48.562;12.108;2023-02-18T12:01:03;6.72;;;6.32;;
26062;SDS011;13837;48.562;12.108;2023-02-18T12:06:03;5.40;;;5.20;;
26062;SDS011;13837;48.562;12.108;2023-02-18T12:08:34;5.88;;;5.57;;
26062;SDS011;13837;48.562;12.108;2023-02-18T12:11:08;5.78;;;5.57;;
26062;SDS011;13837;48.562;12.108;2023-02-18T12:13:36;6.15;;;5.85;;
26062;SDS011;13837;48.562;12.108;2023-02-18T12:20:18;7.30;;;6.70;;
26062;SDS011;13837;48.562;12.108;2023-02-18T13:01:42;5.50;;;5.30;;
26062;SDS011;13837;48.562;12.108;2023-02-18T13:17:48;5.90;;;5.70;;
26062;SDS011;13837;48.562;12.108;2023-02-18T13:20:22;6.32;;;6.00;;
26062;SDS011;13837;48.562;12.108;2023-02-18T13:22:50;6.50;;;6.20;;
26062;SDS011;13837;48.562;12.108;2023-02-18T13:25:17;6.40;;;6.10;;
26062;SDS011;13837;48.562;12.108;2023-02-18T13:27:51;6.60;;;6.28;;
26062;SDS011;13837;48.562;12.108;2023-02-18T13:33:20;6.70;;;6.30;;
26062;SDS011;13837;48.562;12.108;2023-02-18T13:41:15;6.50;;;6.20;;
26062;SDS011;13837;48.562;12.108;2023-02-18T13:43:45;7.30;;;6.80;;
26062;SDS011;13837;48.562;12.108;2023-02-18T13:46:14;7.30;;;6.80;;
26062;SDS011;13837;48.562;12.108;2023-02-18T13:49:03;6.40;;;6.00;;
26062;SDS011;13837;48.562;12.108;2023-02-18T13:54:05;6.68;;;6.20;;
26062;SDS011;13837;48.562;12.108;2023-02-18T13:56:34;8.50;;;7.72;;
26062;SDS011;13837;48.562;12.108;2023-02-18T13:59:05;7.38;;;6.60;;
26062;SDS011;13837;48.562;12.108;2023-02-18T14:01:37;7.40;;;6.82;;
26062;SDS011;13837;48.562;12.108;2023-02-18T14:09:43;7.47;;;6.87;;
26062;SDS011;13837;48.562;12.108;2023-02-18T14:14:49;6.45;;;6.15;;
26062;SDS011;13837;48.562;12.108;2023-02-18T14:19:54;6.90;;;6.50;;
26062;SDS011;13837;48.562;12.108;2023-02-18T14:24:59;6.00;;;5.70;;
26062;SDS011;13837;48.562;12.108;2023-02-18T14:27:27;6.65;;;6.20;;
26062;SDS011;13837;48.562;12.108;2023-02-18T14:29:53;6.70;;;6.40;;
26062;SDS011;13837;48.562;12.108;2023-02-18T14:32:19;6.40;;;6.18;;
26062;SDS011;13837;48.562;12.108;2023-02-18T14:37:34;6.63;;;6.28;;
26062;SDS011;13837;48.562;12.108;2023-02-18T14:43:17;5.97;;;5.57;;
26062;SDS011;13837;48.562;12.108;2023-02-18T14:50:40;6.13;;;5.82;;
26062;SDS011;13837;48.562;12.108;2023-02-18T14:53:12;6.00;;;5.70;;
26062;SDS011;13837;48.562;12.108;2023-02-18T14:55:43;6.00;;;5.75;;
26062;SDS011;13837;48.562;12.108;2023-02-18T15:00:41;6.55;;;6.25;;
26062;SDS011;13837;48.562;12.108;2023-02-18T15:03:10;6.07;;;5.78;;
26062;SDS011;13837;48.562;12.108;2023-02-18T15:05:38;6.85;;;6.45;;
26062;SDS011;13837;48.562;12.108;2023-02-18T15:08:13;7.40;;;7.00;;
26062;SDS011;13837;48.562;12.108;2023-02-18T15:10:55;12.63;;;11.63;;
26062;SDS011;13837;48.562;12.108;2023-02-18T15:13:30;7.40;;;7.00;;
26062;SDS011;13837;48.562;12.108;2023-02-18T15:16:03;7.70;;;7.30;;
26062;SDS011;13837;48.562;12.108;2023-02-18T15:18:37;6.40;;;6.10;;
26062;SDS011;13837;48.562;12.108;2023-02-18T15:21:05;6.18;;;5.90;;
26062;SDS011;13837;48.562;12.108;2023-02-18T15:23:35;6.72;;;6.20;;
26062;SDS011;13837;48.562;12.108;2023-02-18T15:26:03;6.50;;;6.20;;
26062;SDS011;13837;48.562;12.108;2023-02-18T15:28:30;6.60;;;6.20;;
26062;SDS011;13837;48.562;12.108;2023-02-18T15:30:57;7.38;;;6.90;;
26062;SDS011;13837;48.562;12.108;2023-02-18T15:33:24;7.20;;;6.70;;
26062;SDS011;13837;48.562;12.108;2023-02-18T15:35:51;6.57;;;6.28;;
26062;SDS011;13837;48.562;12.108;2023-02-18T15:38:18;6.40;;;6.10;;
26062;SDS011;13837;48.562;12.108;2023-02-18T15:40:46;7.07;;;6.68;;
26062;SDS011;13837;48.562;12.108;2023-02-18T15:43:16;6.40;;;6.10;;
26062;SDS011;13837;48.562;12.108;2023-02-18T15:45:44;6.55;;;6.15;;
26062;SDS011;13837;48.562;12.108;2023-02-18T15:50:48;7.05;;;6.65;;
26062;SDS011;13837;48.562;12.108;2023-02-18T15:53:16;6.60;;;6.30;;
26062;SDS011;13837;48.562;12.108;2023-02-18T15:55:45;7.25;;;6.85;;
26062;SDS011;13837;48.562;12.108;2023-02-18T15:58:16;6.72;;;6.43;;
26062;SDS011;13837;48.562;12.108;2023-02-18T16:05:38;7.32;;;6.82;;
26062;SDS011;13837;48.562;12.108;2023-02-18T16:08:25;7.00;;;6.70;;
26062;SDS011;13837;48.562;12.108;2023-02-18T16:10:53;7.18;;;6.82;;
26062;SDS011;13837;48.562;12.108;2023-02-18T16:16:57;6.30;;;6.10;;
26062;SDS011;13837;48.562;12.108;2023-02-18T16:19:25;6.88;;;6.47;;
26062;SDS011;13837;48.562;12.108;2023-02-18T16:21:51;6.95;;;6.65;;
26062;SDS011;13837;48.562;12.108;2023-02-18T16:24:22;6.60;;;6.20;;
26062;SDS011;13837;48.562;12.108;2023-02-18T16:26:50;6.57;;;6.28;;
26062;SDS011;13837;48.562;12.108;2023-02-18T16:29:31;6.93;;;6.60;;
26062;SDS011;13837;48.562;12.108;2023-02-18T16:32:00;6.80;;;6.50;;
26062;SDS011;13837;48.562;12.108;2023-02-18T16:34:26;7.05;;;6.57;;
26062;SDS011;13837;48.562;12.108;2023-02-18T16:36:52;7.38;;;6.97;;
26062;SDS011;13837;48.562;12.108;2023-02-18T16:39:37;6.82;;;6.43;;
26062;SDS011;13837;48.562;12.108;2023-02-18T16:42:10;7.05;;;6.63;;
26062;SDS011;13837;48.562;12.108;2023-02-18T16:44:37;6.38;;;6.07;;
26062;SDS011;13837;48.562;12.108;2023-02-18T16:47:03;6.75;;;6.45;;
26062;SDS011;13837;48.562;12.108;2023-02-18T16:49:29;6.30;;;6.00;;
26062;SDS011;13837;48.562;12.108;2023-02-18T16:51:56;6.30;;;6.00;;
26062;SDS011;13837;48.562;12.108;2023-02-18T16:54:23;6.20;;;5.90;;
26062;SDS011;13837;48.562;12.108;2023-02-18T16:56:57;6.55;;;6.22;;
26062;SDS011;13837;48.562;12.108;2023-02-18T16:59:23;7.22;;;6.82;;
26062;SDS011;13837;48.562;12.108;2023-02-18T17:01:50;7.00;;;6.60;;
26062;SDS011;13837;48.562;12.108;2023-02-18T17:04:16;7.32;;;6.90;;
26062;SDS011;13837;48.562;12.108;2023-02-18T17:06:44;7.13;;;6.72;;
26062;SDS011;13837;48.562;12.108;2023-02-18T17:09:18;7.43;;;6.82;;
26062;SDS011;13837;48.562;12.108;2023-02-18T17:11:46;6.60;;;6.20;;
26062;SDS011;13837;48.562;12.108;2023-02-18T17:14:14;7.80;;;7.20;;
26062;SDS011;13837;48.562;12.108;2023-02-18T17:16:52;7.78;;;7.22;;
26062;SDS011;13837;48.562;12.108;2023-02-18T17:19:19;6.95;;;6.65;;
26062;SDS011;13837;48.562;12.108;2023-02-18T17:21:51;6.60;;;6.30;;
26062;SDS011;13837;48.562;12.108;2023-02-18T17:24:19;7.05;;;6.65;;
26062;SDS011;13837;48.562;12.108;2023-02-18T17:26:45;7.07;;;6.60;;
26062;SDS011;13837;48.562;12.108;2023-02-18T17:29:11;6.70;;;6.40;;
26062;SDS011;13837;48.562;12.108;2023-02-18T17:31:42;6.60;;;6.32;;
26062;SDS011;13837;48.562;12.108;2023-02-18T17:34:20;6.50;;;6.20;;
26062;SDS011;13837;48.562;12.108;2023-02-18T17:36:47;7.25;;;6.80;;
26062;SDS011;13837;48.562;12.108;2023-02-18T17:39:14;7.03;;;6.40;;
26062;SDS011;13837;48.562;12.108;2023-02-18T17:41:41;6.63;;;6.32;;
26062;SDS011;13837;48.562;12.108;2023-02-18T17:44:17;6.40;;;6.10;;
26062;SDS011;13837;48.562;12.108;2023-02-18T17:46:44;7.05;;;6.47;;
26062;SDS011;13837;48.562;12.108;2023-02-18T17:49:10;6.75;;;6.45;;
26062;SDS011;13837;48.562;12.108;2023-02-18T17:51:37;7.30;;;6.90;;
26062;SDS011;13837;48.562;12.108;2023-02-18T17:54:17;7.07;;;6.68;;
26062;SDS011;13837;48.562;12.108;2023-02-18T17:56:43;6.53;;;6.22;;
26062;SDS011;13837;48.562;12.108;2023-02-18T17:59:12;6.90;;;6.60;;
26062;SDS011;13837;48.562;12.108;2023-02-18T18:01:41;7.20;;;6.80;;
26062;SDS011;13837;48.562;12.108;2023-02-18T18:04:17;6.35;;;6.07;;
26062;SDS011;13837;48.562;12.108;2023-02-18T18:06:51;6.53;;;6.18;;
26062;SDS011;13837;48.562;12.108;2023-02-18T18:09:18;7.10;;;6.70;;
26062;SDS011;13837;48.562;12.108;2023-02-18T18:11:44;6.53;;;6.20;;
26062;SDS011;13837;48.562;12.108;2023-02-18T18:14:12;7.10;;;6.80;;
26062;SDS011;13837;48.562;12.108;2023-02-18T18:16:39;7.68;;;7.10;;
26062;SDS011;13837;48.562;12.108;2023-02-18T18:19:05;6.90;;;6.60;;
26062;SDS011;13837;48.562;12.108;2023-02-18T18:21:32;6.93;;;6.63;;
26062;SDS011;13837;48.562;12.108;2023-02-18T18:23:58;7.00;;;6.60;;
26062;SDS011;13837;48.562;12.108;2023-02-18T18:26:25;7.10;;;6.80;;
26062;SDS011;13837;48.562;12.108;2023-02-18T18:28:51;7.10;;;6.80;;
26062;SDS011;13837;48.562;12.108;2023-02-18T18:31:18;6.85;;;6.55;;
26062;SDS011;13837;48.562;12.108;2023-02-18T18:33:44;7.63;;;7.22;;
26062;SDS011;13837;48.562;12.108;2023-02-18T18:36:13;7.40;;;7.00;;
26062;SDS011;13837;48.562;12.108;2023-02-18T18:38:39;7.10;;;6.70;;
26062;SDS011;13837;48.562;12.108;2023-02-18T18:41:07;7.30;;;6.93;;
26062;SDS011;13837;48.562;12.108;2023-02-18T18:43:34;6.90;;;6.40;;
26062;SDS011;13837;48.562;12.108;2023-02-18T18:46:02;7.53;;;6.95;;
26062;SDS011;13837;48.562;12.108;2023-02-18T18:48:28;6.80;;;6.50;;
26062;SDS011;13837;48.562;12.108;2023-02-18T18:50:58;7.22;;;6.93;;
26062;SDS011;13837;48.562;12.108;2023-02-18T18:53:27;6.85;;;6.55;;
26062;SDS011;13837;48.562;12.108;2023-02-18T18:55:58;7.15;;;6.72;;
26062;SDS011;13837;48.562;12.108;2023-02-18T18:58:25;7.20;;;6.80;;
26062;SDS011;13837;48.562;12.108;2023-02-18T19:00:52;7.63;;;7.13;;
26062;SDS011;13837;48.562;12.108;2023-02-18T19:03:19;7.68;;;7.28;;
26062;SDS011;13837;48.562;12.108;2023-02-18T19:05:46;7.07;;;6.78;;
26062;SDS011;13837;48.562;12.108;2023-02-18T19:08:12;7.72;;;7.32;;
26062;SDS011;13837;48.562;12.108;2023-02-18T19:13:11;7.10;;;6.80;;
26062;SDS011;13837;48.562;12.108;2023-02-18T19:15:37;7.43;;;7.05;;
26062;SDS011;13837;48.562;12.108;2023-02-18T19:18:05;7.53;;;6.93;;
26062;SDS011;13837;48.562;12.108;2023-02-18T19:20:32;7.25;;;6.90;;
26062;SDS011;13837;48.562;12.108;2023-02-18T19:23:00;7.32;;;7.00;;
26062;SDS011;13837;48.562;12.108;2023-02-18T19:25:26;7.32;;;6.93;;
26062;SDS011;13837;48.562;12.108;2023-02-18T19:27:52;7.20;;;6.90;;
26062;SDS011;13837;48.562;12.108;2023-02-18T19:30:19;7.68;;;7.18;;
26062;SDS011;13837;48.562;12.108;2023-02-18T19:32:47;8.03;;;7.63;;
26062;SDS011;13837;48.562;12.108;2023-02-18T19:35:13;7.10;;;6.70;;
26062;SDS011;13837;48.562;12.108;2023-02-18T19:37:40;7.55;;;7.20;;
26062;SDS011;13837;48.562;12.108;2023-02-18T19:40:06;7.70;;;7.30;;
26062;SDS011;13837;48.562;12.108;2023-02-18T19:42:33;6.90;;;6.50;;
26062;SDS011;13837;48.562;12.108;2023-02-18T19:44:59;7.20;;;6.85;;
26062;SDS011;13837;48.562;12.108;2023-02-18T19:47:26;7.25;;;6.82;;
26062;SDS011;13837;48.562;12.108;2023-02-18T19:49:52;7.57;;;7.07;;
26062;SDS011;13837;48.562;12.108;2023-02-18T19:52:19;7.50;;;7.10;;
26062;SDS011;13837;48.562;12.108;2023-02-18T19:54:45;7.45;;;7.15;;
26062;SDS011;13837;48.562;12.108;2023-02-18T19:57:12;7.75;;;7.18;;
26062;SDS011;13837;48.562;12.108;2023-02-18T19:59:38;7.15;;;6.85;;
26062;SDS011;13837;48.562;12.108;2023-02-18T20:02:05;7.00;;;6.68;;
26062;SDS011;13837;48.562;12.108;2023-02-18T20:04:32;7.47;;;7.18;;
26062;SDS011;13837;48.562;12.108;2023-02-18T20:06:58;6.82;;;6.53;;
26062;SDS011;13837;48.562;12.108;2023-02-18T20:09:24;7.40;;;7.00;;
26062;SDS011;13837;48.562;12.108;2023-02-18T20:11:50;7.30;;;6.97;;